Time,TemperatureF,DewpointF,PressureIn,WindDirection,WindDirectionDegrees,WindSpeedMPH,WindSpeedGustMPH,Humidity,HourlyPrecipIn,Conditions,Clouds,dailyrainin,SoftwareType,DateUTC
2013-02-03 00:04:00,10.9,7.0,30.06,WNW,291,0.0,1.0,84,0.00,,,0.00,meteohub,2013-02-03 06:04:00,
2013-02-03 00:09:00,10.9,7.0,30.06,WNW,291,0.0,1.0,84,0.00,,,0.00,meteohub,2013-02-03 06:09:00,
2013-02-03 00:14:00,10.9,7.0,30.06,WNW,294,1.0,0.0,84,0.00,,,0.00,meteohub,2013-02-03 06:14:00,
2013-02-03 00:19:00,10.9,7.0,30.06,NNW,336,0.0,1.0,84,0.00,,,0.00,meteohub,2013-02-03 06:19:00,
2013-02-03 00:25:00,10.9,7.0,30.07,NE,34,2.0,2.0,84,0.00,,,0.00,meteohub,2013-02-03 06:25:00,
2013-02-03 00:30:00,11.1,7.2,30.07,NNE,22,0.0,3.0,84,0.00,,,0.00,meteohub,2013-02-03 06:30:00,
2013-02-03 00:35:00,11.1,7.2,30.07,NNE,32,1.0,3.0,84,0.00,,,0.00,meteohub,2013-02-03 06:35:00,
2013-02-03 00:40:00,11.1,7.2,30.07,NNE,25,0.0,3.0,84,0.00,,,0.00,meteohub,2013-02-03 06:40:00,
2013-02-03 00:45:00,11.1,7.2,30.07,NNE,26,0.0,3.0,84,0.00,,,0.00,meteohub,2013-02-03 06:45:00,
2013-02-03 00:50:00,11.1,7.2,30.07,NE,46,0.0,4.0,84,0.00,,,0.00,meteohub,2013-02-03 06:50:00,
2013-02-03 00:55:00,11.3,7.3,30.07,NE,48,4.0,7.0,84,0.00,,,0.00,meteohub,2013-02-03 06:55:00,
2013-02-03 01:00:00,11.5,7.5,30.07,NE,38,2.0,7.0,84,0.00,,,0.00,meteohub,2013-02-03 07:00:00,
2013-02-03 01:05:00,11.5,7.5,30.07,NE,34,1.0,7.0,84,0.00,,,0.00,meteohub,2013-02-03 07:05:00,
2013-02-03 01:10:00,11.3,7.3,30.07,NE,46,1.0,5.0,84,0.00,,,0.00,meteohub,2013-02-03 07:10:00,
2013-02-03 01:15:00,11.1,7.2,30.07,NE,51,4.0,6.0,84,0.00,,,0.00,meteohub,2013-02-03 07:15:00,
2013-02-03 01:20:00,11.1,7.0,30.07,NE,37,0.0,6.0,83,0.00,,,0.00,meteohub,2013-02-03 07:20:00,
2013-02-03 01:25:00,10.9,6.8,30.07,NE,53,2.0,6.0,83,0.00,,,0.00,meteohub,2013-02-03 07:25:00,
2013-02-03 01:30:00,10.9,6.8,30.07,NE,44,2.0,11.0,83,0.00,,,0.00,meteohub,2013-02-03 07:30:00,
2013-02-03 01:35:00,10.9,6.8,30.07,ENE,60,2.0,11.0,83,0.00,,,0.00,meteohub,2013-02-03 07:35:00,
2013-02-03 01:40:00,10.8,6.6,30.08,NE,36,4.0,11.0,83,0.00,,,0.00,meteohub,2013-02-03 07:40:00,
2013-02-03 01:46:00,10.8,6.6,30.08,NE,53,0.0,11.0,83,0.00,,,0.00,meteohub,2013-02-03 07:46:00,
2013-02-03 01:51:00,10.8,6.4,30.08,NE,52,5.0,11.0,82,0.00,,,0.00,meteohub,2013-02-03 07:51:00,
2013-02-03 01:56:00,10.8,6.4,30.08,NE,43,0.0,12.0,82,0.00,,,0.00,meteohub,2013-02-03 07:56:00,
2013-02-03 02:01:00,10.8,6.4,30.09,NE,53,0.0,12.0,82,0.00,,,0.00,meteohub,2013-02-03 08:01:00,
2013-02-03 02:06:00,10.8,6.4,30.09,NE,49,1.0,9.0,82,0.00,,,0.00,meteohub,2013-02-03 08:06:00,
2013-02-03 02:11:00,10.6,6.3,30.09,NE,55,3.0,7.0,82,0.00,,,0.00,meteohub,2013-02-03 08:11:00,
2013-02-03 02:16:00,10.6,6.3,30.10,NE,39,0.0,7.0,82,0.00,,,0.00,meteohub,2013-02-03 08:16:00,
2013-02-03 02:21:00,10.6,6.3,30.10,NNE,21,3.0,7.0,82,0.00,,,0.00,meteohub,2013-02-03 08:21:00,
2013-02-03 02:26:00,10.8,6.4,30.10,NE,46,3.0,7.0,82,0.00,,,0.00,meteohub,2013-02-03 08:26:00,
2013-02-03 02:31:00,10.8,6.4,30.10,NE,44,4.0,10.0,82,0.00,,,0.00,meteohub,2013-02-03 08:31:00,
2013-02-03 02:36:00,10.8,6.4,30.10,ENE,59,3.0,10.0,82,0.00,,,0.00,meteohub,2013-02-03 08:36:00,
2013-02-03 02:41:00,10.8,6.1,30.10,NE,51,4.0,10.0,81,0.00,,,0.00,meteohub,2013-02-03 08:41:00,
2013-02-03 02:46:00,10.8,6.1,30.10,NE,55,7.0,7.0,81,0.00,,,0.00,meteohub,2013-02-03 08:46:00,
2013-02-03 02:51:00,10.8,6.1,30.10,NE,48,2.0,7.0,81,0.00,,,0.00,meteohub,2013-02-03 08:51:00,
2013-02-03 02:56:00,10.9,6.3,30.10,NE,41,2.0,7.0,81,0.00,,,0.00,meteohub,2013-02-03 08:56:00,
2013-02-03 03:02:00,10.9,6.3,30.10,East,87,4.0,7.0,81,0.00,,,0.00,meteohub,2013-02-03 09:02:00,
2013-02-03 03:07:00,10.9,6.3,30.10,ENE,63,4.0,7.0,81,0.00,,,0.00,meteohub,2013-02-03 09:07:00,
2013-02-03 03:12:00,10.9,5.9,30.10,NE,41,2.0,9.0,80,0.00,,,0.00,meteohub,2013-02-03 09:12:00,
2013-02-03 03:17:00,11.1,6.1,30.10,NE,49,3.0,9.0,80,0.00,,,0.00,meteohub,2013-02-03 09:17:00,
2013-02-03 03:22:00,11.1,6.1,30.10,ENE,76,3.0,12.0,80,0.00,,,0.00,meteohub,2013-02-03 09:22:00,
2013-02-03 03:27:00,11.1,6.1,30.10,NNE,13,0.0,12.0,80,0.00,,,0.00,meteohub,2013-02-03 09:27:00,
2013-02-03 03:32:00,11.1,6.1,30.10,NNE,25,2.0,12.0,80,0.00,,,0.00,meteohub,2013-02-03 09:32:00,
2013-02-03 03:37:00,11.1,6.1,30.09,ENE,74,4.0,7.0,80,0.00,,,0.00,meteohub,2013-02-03 09:37:00,
2013-02-03 03:42:00,11.1,5.9,30.09,NE,35,1.0,6.0,79,0.00,,,0.00,meteohub,2013-02-03 09:42:00,
2013-02-03 03:47:00,11.1,5.9,30.09,NE,46,2.0,6.0,79,0.00,,,0.00,meteohub,2013-02-03 09:47:00,
2013-02-03 03:52:00,11.1,5.9,30.09,NNE,26,0.0,5.0,79,0.00,,,0.00,meteohub,2013-02-03 09:52:00,
2013-02-03 03:57:00,11.1,5.9,30.09,NE,43,5.0,5.0,79,0.00,,,0.00,meteohub,2013-02-03 09:57:00,
2013-02-03 04:02:00,10.9,5.7,30.09,NE,44,0.0,5.0,79,0.00,,,0.00,meteohub,2013-02-03 10:02:00,
2013-02-03 04:07:00,10.6,5.4,30.10,NE,42,0.0,5.0,79,0.00,,,0.00,meteohub,2013-02-03 10:07:00,
2013-02-03 04:12:00,10.2,4.8,30.11,NE,55,2.0,5.0,78,0.00,,,0.00,meteohub,2013-02-03 10:12:00,
2013-02-03 04:17:00,10.2,5.0,30.11,NNE,23,0.0,7.0,79,0.00,,,0.00,meteohub,2013-02-03 10:17:00,
2013-02-03 04:22:00,10.0,4.8,30.11,NE,56,0.0,7.0,79,0.00,,,0.00,meteohub,2013-02-03 10:22:00,
2013-02-03 04:27:00,9.9,4.6,30.11,North,11,2.0,7.0,79,0.00,,,0.00,meteohub,2013-02-03 10:27:00,
2013-02-03 04:32:00,9.9,4.6,30.12,North,355,5.0,9.0,79,0.00,,,0.00,meteohub,2013-02-03 10:32:00,
2013-02-03 04:37:00,9.7,4.5,30.12,NE,50,4.0,9.0,79,0.00,,,0.00,meteohub,2013-02-03 10:37:00,
2013-02-03 04:42:00,9.7,4.5,30.12,NNE,24,1.0,12.0,79,0.00,,,0.00,meteohub,2013-02-03 10:42:00,
2013-02-03 04:47:00,9.3,4.1,30.12,NNE,29,0.0,12.0,79,0.00,,,0.00,meteohub,2013-02-03 10:47:00,
2013-02-03 04:52:00,9.1,3.9,30.12,NNE,30,0.0,12.0,79,0.00,,,0.00,meteohub,2013-02-03 10:52:00,
2013-02-03 04:57:00,9.0,3.7,30.12,NE,43,0.0,9.0,79,0.00,,,0.00,meteohub,2013-02-03 10:57:00,
2013-02-03 05:02:00,9.0,3.7,30.13,NE,40,4.0,10.0,79,0.00,,,0.00,meteohub,2013-02-03 11:02:00,
2013-02-03 05:07:00,8.8,3.6,30.13,NNE,17,0.0,10.0,79,0.00,,,0.00,meteohub,2013-02-03 11:07:00,
2013-02-03 05:12:00,8.4,3.2,30.13,NE,56,0.0,10.0,79,0.00,,,0.00,meteohub,2013-02-03 11:12:00,
2013-02-03 05:17:00,8.4,3.0,30.13,NE,48,4.0,11.0,78,0.00,,,0.00,meteohub,2013-02-03 11:17:00,
2013-02-03 05:22:00,8.2,2.8,30.13,NE,40,0.0,11.0,78,0.00,,,0.00,meteohub,2013-02-03 11:22:00,
2013-02-03 05:27:00,8.1,2.8,30.13,NE,51,2.0,11.0,79,0.00,,,0.00,meteohub,2013-02-03 11:27:00,
2013-02-03 05:32:00,7.9,2.7,30.13,NE,53,0.0,7.0,79,0.00,,,0.00,meteohub,2013-02-03 11:32:00,
2013-02-03 05:37:00,7.9,2.7,30.13,NNE,32,1.0,9.0,79,0.00,,,0.00,meteohub,2013-02-03 11:37:00,
2013-02-03 05:42:00,7.5,2.1,30.13,NE,48,2.0,12.0,78,0.00,,,0.00,meteohub,2013-02-03 11:42:00,
2013-02-03 05:47:00,7.5,2.1,30.12,NE,40,5.0,12.0,78,0.00,,,0.00,meteohub,2013-02-03 11:47:00,
2013-02-03 05:52:00,7.3,1.9,30.13,East,79,3.0,7.0,78,0.00,,,0.00,meteohub,2013-02-03 11:52:00,
2013-02-03 05:57:00,7.2,1.8,30.13,ENE,61,0.0,7.0,78,0.00,,,0.00,meteohub,2013-02-03 11:57:00,
2013-02-03 06:02:00,7.0,1.6,30.13,ENE,58,0.0,7.0,78,0.00,,,0.00,meteohub,2013-02-03 12:02:00,
2013-02-03 06:07:00,6.6,1.2,30.13,NE,49,0.0,7.0,78,0.00,,,0.00,meteohub,2013-02-03 12:07:00,
2013-02-03 06:12:00,6.6,1.2,30.13,NE,53,0.0,7.0,78,0.00,,,0.00,meteohub,2013-02-03 12:12:00,
2013-02-03 06:17:00,6.4,1.0,30.12,NE,46,0.0,7.0,78,0.00,,,0.00,meteohub,2013-02-03 12:17:00,
2013-02-03 06:22:00,6.4,1.0,30.13,ENE,57,3.0,7.0,78,0.00,,,0.00,meteohub,2013-02-03 12:22:00,
2013-02-03 06:27:00,6.3,0.9,30.13,NE,46,0.0,7.0,78,0.00,,,0.00,meteohub,2013-02-03 12:27:00,
2013-02-03 06:32:00,6.1,0.7,30.13,NE,44,0.0,7.0,78,0.00,,,0.00,meteohub,2013-02-03 12:32:00,
2013-02-03 06:37:00,5.9,0.5,30.13,NNE,31,0.0,5.0,78,0.00,,,0.00,meteohub,2013-02-03 12:37:00,
2013-02-03 06:42:00,5.9,0.5,30.14,ENE,59,2.0,5.0,78,0.00,,,0.00,meteohub,2013-02-03 12:42:00,
2013-02-03 06:47:00,5.9,0.9,30.14,NE,41,2.0,6.0,79,0.00,,,0.00,meteohub,2013-02-03 12:47:00,
2013-02-03 06:52:00,5.7,0.7,30.14,NE,54,0.0,10.0,79,0.00,,,0.00,meteohub,2013-02-03 12:52:00,
2013-02-03 06:57:00,5.5,0.1,30.13,NE,49,0.0,10.0,78,0.00,,,0.00,meteohub,2013-02-03 12:57:00,
2013-02-03 07:02:00,5.5,0.1,30.14,NNE,19,0.0,10.0,78,0.00,,,0.00,meteohub,2013-02-03 13:02:00,
2013-02-03 07:07:00,5.4,0.3,30.15,NNE,19,0.0,3.0,79,0.00,,,0.00,meteohub,2013-02-03 13:07:00,
2013-02-03 07:12:00,5.2,0.1,30.15,NE,41,0.0,2.0,79,0.00,,,0.00,meteohub,2013-02-03 13:12:00,
2013-02-03 07:17:00,5.2,0.1,30.15,NE,48,0.0,3.0,79,0.00,,,0.00,meteohub,2013-02-03 13:17:00,
2013-02-03 07:22:00,5.2,0.1,30.15,NE,35,2.0,4.0,79,0.00,,,0.00,meteohub,2013-02-03 13:22:00,
2013-02-03 07:27:00,5.2,0.1,30.15,NE,49,0.0,4.0,79,0.00,,,0.00,meteohub,2013-02-03 13:27:00,
2013-02-03 07:32:00,5.0,0.0,30.15,NNE,27,0.0,6.0,79,0.00,,,0.00,meteohub,2013-02-03 13:32:00,
2013-02-03 07:37:00,5.0,0.0,30.14,ENE,76,0.0,6.0,79,0.00,,,0.00,meteohub,2013-02-03 13:37:00,
2013-02-03 07:43:00,4.8,-0.2,30.14,ENE,76,0.0,4.0,79,0.00,,,0.00,meteohub,2013-02-03 13:43:00,
2013-02-03 07:48:00,4.8,-0.2,30.14,ENE,74,0.0,3.0,79,0.00,,,0.00,meteohub,2013-02-03 13:48:00,
2013-02-03 07:53:00,5.2,0.1,30.15,NE,53,0.0,4.0,79,0.00,,,0.00,meteohub,2013-02-03 13:53:00,
2013-02-03 07:58:00,5.4,0.3,30.15,NE,36,0.0,4.0,79,0.00,,,0.00,meteohub,2013-02-03 13:58:00,
2013-02-03 08:03:00,5.7,0.9,30.15,NE,38,2.0,5.0,80,0.00,,,0.00,meteohub,2013-02-03 14:03:00,
2013-02-03 08:08:00,6.1,1.0,30.15,NNE,19,0.0,6.0,79,0.00,,,0.00,meteohub,2013-02-03 14:08:00,
2013-02-03 08:13:00,6.3,1.2,30.16,NE,36,0.0,6.0,79,0.00,,,0.00,meteohub,2013-02-03 14:13:00,
2013-02-03 08:18:00,6.1,1.0,30.17,North,11,0.0,6.0,79,0.00,,,0.00,meteohub,2013-02-03 14:18:00,
2013-02-03 08:23:00,5.9,0.5,30.16,ENE,67,0.0,5.0,78,0.00,,,0.00,meteohub,2013-02-03 14:23:00,
2013-02-03 08:29:00,5.9,0.5,30.15,NE,55,0.0,6.0,78,0.00,,,0.00,meteohub,2013-02-03 14:29:00,
2013-02-03 08:34:00,6.3,0.9,30.17,ENE,75,0.0,6.0,78,0.00,,,0.00,meteohub,2013-02-03 14:34:00,
2013-02-03 08:39:00,6.6,1.2,30.17,North,0,2.0,6.0,78,0.00,,,0.00,meteohub,2013-02-03 14:39:00,
2013-02-03 08:44:00,7.2,1.4,30.17,NE,49,2.0,5.0,77,0.00,,,0.00,meteohub,2013-02-03 14:44:00,
2013-02-03 08:49:00,7.2,1.2,30.17,NE,50,0.0,6.0,76,0.00,,,0.00,meteohub,2013-02-03 14:49:00,
2013-02-03 08:54:00,7.5,1.6,30.16,NE,40,5.0,9.0,76,0.00,,,0.00,meteohub,2013-02-03 14:54:00,
2013-02-03 08:59:00,7.9,1.9,30.15,NE,41,1.0,10.0,76,0.00,,,0.00,meteohub,2013-02-03 14:59:00,
2013-02-03 09:05:00,7.9,1.6,30.15,ENE,59,4.0,10.0,75,0.00,,,0.00,meteohub,2013-02-03 15:05:00,
2013-02-03 09:10:00,7.7,1.4,30.16,ENE,65,1.0,9.0,75,0.00,,,0.00,meteohub,2013-02-03 15:10:00,
2013-02-03 09:15:00,8.1,1.6,30.15,ENE,78,0.0,6.0,74,0.00,,,0.00,meteohub,2013-02-03 15:15:00,
2013-02-03 09:20:00,8.4,1.8,30.15,NNE,19,0.0,6.0,74,0.00,,,0.00,meteohub,2013-02-03 15:20:00,
2013-02-03 09:25:00,8.4,1.6,30.16,ENE,62,1.0,6.0,73,0.00,,,0.00,meteohub,2013-02-03 15:25:00,
2013-02-03 09:30:00,8.8,1.9,30.16,ENE,76,3.0,6.0,73,0.00,,,0.00,meteohub,2013-02-03 15:30:00,
2013-02-03 09:35:00,9.0,1.8,30.16,NNW,348,0.0,5.0,72,0.00,,,0.00,meteohub,2013-02-03 15:35:00,
2013-02-03 09:40:00,9.0,1.8,30.16,ENE,62,0.0,9.0,72,0.00,,,0.00,meteohub,2013-02-03 15:40:00,
2013-02-03 09:45:00,9.1,1.9,30.15,NE,37,2.0,9.0,72,0.00,,,0.00,meteohub,2013-02-03 15:45:00,
2013-02-03 09:50:00,9.3,1.8,30.15,NE,56,0.0,7.0,71,0.00,,,0.00,meteohub,2013-02-03 15:50:00,
2013-02-03 09:55:00,9.9,2.3,30.15,NE,51,2.0,5.0,71,0.00,,,0.00,meteohub,2013-02-03 15:55:00,
2013-02-03 10:00:00,10.0,2.3,30.15,ENE,64,0.0,4.0,70,0.00,,,0.00,meteohub,2013-02-03 16:00:00,
2013-02-03 10:05:00,10.0,1.9,30.15,North,5,2.0,4.0,69,0.00,,,0.00,meteohub,2013-02-03 16:05:00,
2013-02-03 10:11:00,10.6,2.5,30.15,NE,34,1.0,4.0,69,0.00,,,0.00,meteohub,2013-02-03 16:11:00,
2013-02-03 10:16:00,10.9,2.5,30.15,NNE,28,0.0,5.0,68,0.00,,,0.00,meteohub,2013-02-03 16:16:00,
2013-02-03 10:21:00,11.3,3.2,30.15,NE,41,2.0,6.0,69,0.00,,,0.00,meteohub,2013-02-03 16:21:00,
2013-02-03 10:26:00,11.7,3.2,30.15,NNE,22,0.0,6.0,68,0.00,,,0.00,meteohub,2013-02-03 16:26:00,
2013-02-03 10:31:00,11.7,3.2,30.16,NE,46,0.0,5.0,68,0.00,,,0.00,meteohub,2013-02-03 16:31:00,
2013-02-03 10:36:00,12.6,4.1,30.15,ENE,63,4.0,5.0,68,0.00,,,0.00,meteohub,2013-02-03 16:36:00,
2013-02-03 10:41:00,12.0,2.5,30.16,NE,50,3.0,6.0,65,0.00,,,0.00,meteohub,2013-02-03 16:41:00,
2013-02-03 10:46:00,11.3,2.1,30.16,NE,48,0.0,7.0,66,0.00,,,0.00,meteohub,2013-02-03 16:46:00,
2013-02-03 10:51:00,11.7,2.8,30.16,NE,34,2.0,7.0,67,0.00,,,0.00,meteohub,2013-02-03 16:51:00,
2013-02-03 10:56:00,12.2,3.4,30.17,NE,39,2.0,7.0,67,0.00,,,0.00,meteohub,2013-02-03 16:56:00,
2013-02-03 11:01:00,12.7,3.9,30.16,NE,51,0.0,6.0,67,0.00,,,0.00,meteohub,2013-02-03 17:01:00,
2013-02-03 11:06:00,12.6,3.7,30.16,NE,42,3.0,5.0,67,0.00,,,0.00,meteohub,2013-02-03 17:06:00,
2013-02-03 11:11:00,12.4,3.2,30.16,NE,42,0.0,5.0,66,0.00,,,0.00,meteohub,2013-02-03 17:11:00,
2013-02-03 11:16:00,12.6,3.4,30.16,NE,45,0.0,5.0,66,0.00,,,0.00,meteohub,2013-02-03 17:16:00,
2013-02-03 11:21:00,12.7,3.9,30.15,NNE,26,0.0,6.0,67,0.00,,,0.00,meteohub,2013-02-03 17:21:00,
2013-02-03 11:27:00,13.1,4.3,30.15,ENE,60,6.0,6.0,67,0.00,,,0.00,meteohub,2013-02-03 17:27:00,
2013-02-03 11:32:00,13.5,4.6,30.15,NW,310,0.0,6.0,67,0.00,,,0.00,meteohub,2013-02-03 17:32:00,
2013-02-03 11:37:00,13.5,4.3,30.14,NE,56,0.0,6.0,66,0.00,,,0.00,meteohub,2013-02-03 17:37:00,
2013-02-03 11:42:00,13.5,3.9,30.14,NNE,22,0.0,6.0,65,0.00,,,0.00,meteohub,2013-02-03 17:42:00,
2013-02-03 11:47:00,13.6,4.1,30.14,NE,41,0.0,4.0,65,0.00,,,0.00,meteohub,2013-02-03 17:47:00,
2013-02-03 11:52:00,13.8,4.3,30.14,ENE,67,5.0,5.0,65,0.00,,,0.00,meteohub,2013-02-03 17:52:00,
2013-02-03 11:57:00,14.0,4.5,30.14,NNE,33,1.0,5.0,65,0.00,,,0.00,meteohub,2013-02-03 17:57:00,
2013-02-03 12:02:00,14.2,5.0,30.14,NNE,29,0.0,5.0,66,0.00,,,0.00,meteohub,2013-02-03 18:02:00,
2013-02-03 12:07:00,14.4,5.0,30.14,NNE,29,0.0,5.0,66,0.00,,,0.00,meteohub,2013-02-03 18:07:00,
2013-02-03 12:12:00,14.2,4.6,30.13,NE,43,1.0,4.0,65,0.00,,,0.00,meteohub,2013-02-03 18:12:00,
2013-02-03 12:17:00,14.4,4.8,30.13,NE,34,0.0,4.0,65,0.00,,,0.00,meteohub,2013-02-03 18:17:00,
2013-02-03 12:22:00,14.7,5.2,30.13,NE,44,0.0,5.0,65,0.00,,,0.00,meteohub,2013-02-03 18:22:00,
2013-02-03 12:27:00,15.1,5.4,30.13,NE,56,3.0,5.0,65,0.00,,,0.00,meteohub,2013-02-03 18:27:00,
2013-02-03 12:32:00,15.3,5.5,30.13,North,0,4.0,5.0,65,0.00,,,0.00,meteohub,2013-02-03 18:32:00,
2013-02-03 12:37:00,15.1,5.2,30.13,NNE,32,0.0,4.0,64,0.00,,,0.00,meteohub,2013-02-03 18:37:00,
2013-02-03 12:42:00,15.3,5.9,30.12,NE,55,5.0,6.0,66,0.00,,,0.00,meteohub,2013-02-03 18:42:00,
2013-02-03 12:47:00,14.9,5.2,30.12,NE,43,4.0,6.0,65,0.00,,,0.00,meteohub,2013-02-03 18:47:00,
2013-02-03 12:52:00,14.4,4.8,30.12,NE,51,0.0,6.0,65,0.00,,,0.00,meteohub,2013-02-03 18:52:00,
2013-02-03 12:57:00,14.5,5.2,30.12,NE,49,1.0,6.0,66,0.00,,,0.00,meteohub,2013-02-03 18:57:00,
2013-02-03 13:02:00,14.5,5.2,30.11,North,355,4.0,6.0,66,0.00,,,0.00,meteohub,2013-02-03 19:02:00,
2013-02-03 13:07:00,14.7,5.7,30.11,NNE,28,4.0,6.0,67,0.00,,,0.00,meteohub,2013-02-03 19:07:00,
2013-02-03 13:12:00,14.5,5.5,30.11,NE,42,1.0,7.0,67,0.00,,,0.00,meteohub,2013-02-03 19:12:00,
2013-02-03 13:17:00,14.4,5.4,30.12,NW,325,3.0,7.0,67,0.00,,,0.00,meteohub,2013-02-03 19:17:00,
2013-02-03 13:22:00,14.2,5.0,30.11,NE,41,0.0,9.0,66,0.00,,,0.00,meteohub,2013-02-03 19:22:00,
2013-02-03 13:27:00,14.4,5.7,30.11,ENE,57,0.0,9.0,68,0.00,,,0.00,meteohub,2013-02-03 19:27:00,
2013-02-03 13:32:00,14.7,6.1,30.11,NE,40,0.0,9.0,68,0.00,,,0.00,meteohub,2013-02-03 19:32:00,
2013-02-03 13:37:00,14.7,6.1,30.11,NNE,32,0.0,7.0,68,0.00,,,0.00,meteohub,2013-02-03 19:37:00,
2013-02-03 13:42:00,14.5,5.9,30.10,ENE,58,0.0,5.0,68,0.00,,,0.00,meteohub,2013-02-03 19:42:00,
2013-02-03 13:47:00,14.4,6.1,30.10,NE,55,4.0,4.0,69,0.00,,,0.00,meteohub,2013-02-03 19:47:00,
2013-02-03 13:52:00,14.0,6.1,30.10,NNE,24,0.0,6.0,70,0.00,,,0.00,meteohub,2013-02-03 19:52:00,
2013-02-03 13:57:00,14.2,6.4,30.10,NNE,19,0.0,6.0,71,0.00,,,0.00,meteohub,2013-02-03 19:57:00,
2013-02-03 14:02:00,14.4,6.6,30.09,NNE,18,0.0,6.0,71,0.00,,,0.00,meteohub,2013-02-03 20:02:00,
2013-02-03 14:07:00,14.2,6.8,30.09,NE,48,0.0,4.0,72,0.00,,,0.00,meteohub,2013-02-03 20:07:00,
2013-02-03 14:12:00,14.4,7.0,30.09,NE,45,2.0,4.0,72,0.00,,,0.00,meteohub,2013-02-03 20:12:00,
2013-02-03 14:17:00,14.4,7.0,30.08,NE,43,1.0,4.0,72,0.00,,,0.00,meteohub,2013-02-03 20:17:00,
2013-02-03 14:22:00,14.4,7.0,30.09,NW,319,1.0,4.0,72,0.00,,,0.00,meteohub,2013-02-03 20:22:00,
2013-02-03 14:27:00,14.2,7.2,30.09,North,355,1.0,4.0,73,0.00,,,0.00,meteohub,2013-02-03 20:27:00,
2013-02-03 14:32:00,13.6,6.3,30.09,NNW,337,0.0,4.0,72,0.00,,,0.00,meteohub,2013-02-03 20:32:00,
2013-02-03 14:37:00,13.8,6.8,30.09,NE,55,0.0,4.0,73,0.00,,,0.00,meteohub,2013-02-03 20:37:00,
2013-02-03 14:42:00,14.2,7.3,30.08,NE,55,0.0,3.0,74,0.00,,,0.00,meteohub,2013-02-03 20:42:00,
2013-02-03 14:47:00,14.0,7.2,30.08,NE,53,0.0,3.0,74,0.00,,,0.00,meteohub,2013-02-03 20:47:00,
2013-02-03 14:52:00,13.6,7.0,30.08,NE,47,0.0,3.0,74,0.00,,,0.00,meteohub,2013-02-03 20:52:00,
2013-02-03 14:57:00,13.8,7.2,30.08,NE,48,0.0,3.0,74,0.00,,,0.00,meteohub,2013-02-03 20:57:00,
2013-02-03 15:02:00,14.0,7.2,30.07,WNW,283,0.0,3.0,74,0.00,,,0.00,meteohub,2013-02-03 21:02:00,
2013-02-03 15:07:00,13.8,6.8,30.08,NE,40,0.0,4.0,73,0.00,,,0.00,meteohub,2013-02-03 21:07:00,
2013-02-03 15:12:00,13.8,7.2,30.08,NNE,27,1.0,4.0,74,0.00,,,0.00,meteohub,2013-02-03 21:12:00,
2013-02-03 15:17:00,13.6,6.6,30.08,West,271,0.0,4.0,73,0.00,,,0.00,meteohub,2013-02-03 21:17:00,
2013-02-03 15:22:00,13.8,7.2,30.08,West,275,0.0,3.0,74,0.00,,,0.00,meteohub,2013-02-03 21:22:00,
2013-02-03 15:27:00,13.8,7.2,30.07,NNE,12,0.0,3.0,74,0.00,,,0.00,meteohub,2013-02-03 21:27:00,
2013-02-03 15:32:00,13.6,6.6,30.07,NNE,18,0.0,3.0,73,0.00,,,0.00,meteohub,2013-02-03 21:32:00,
2013-02-03 15:37:00,13.8,7.2,30.07,NNE,18,0.0,3.0,74,0.00,,,0.00,meteohub,2013-02-03 21:37:00,
2013-02-03 15:42:00,13.8,7.2,30.07,NE,40,2.0,3.0,74,0.00,,,0.00,meteohub,2013-02-03 21:42:00,
2013-02-03 15:47:00,13.6,7.0,30.07,NE,43,1.0,4.0,74,0.00,,,0.00,meteohub,2013-02-03 21:47:00,
2013-02-03 15:52:00,13.5,6.8,30.06,NE,42,0.0,4.0,74,0.00,,,0.00,meteohub,2013-02-03 21:52:00,
2013-02-03 15:57:00,13.6,7.0,30.07,NE,42,0.0,4.0,74,0.00,,,0.00,meteohub,2013-02-03 21:57:00,
2013-02-03 16:02:00,13.8,7.2,30.07,NE,42,0.0,3.0,74,0.00,,,0.00,meteohub,2013-02-03 22:02:00,
2013-02-03 16:08:00,13.6,7.0,30.07,NE,42,0.0,0.0,74,0.00,,,0.00,meteohub,2013-02-03 22:08:00,
2013-02-03 16:13:00,13.5,7.0,30.06,NE,41,0.0,0.0,75,0.00,,,0.00,meteohub,2013-02-03 22:13:00,
2013-02-03 16:18:00,13.5,6.8,30.06,NE,42,0.0,0.0,74,0.00,,,0.00,meteohub,2013-02-03 22:18:00,
2013-02-03 16:23:00,13.5,7.0,30.06,NE,42,0.0,0.0,75,0.00,,,0.00,meteohub,2013-02-03 22:23:00,
2013-02-03 16:28:00,13.6,7.2,30.06,NE,41,0.0,0.0,75,0.00,,,0.00,meteohub,2013-02-03 22:28:00,
2013-02-03 16:33:00,13.6,7.2,30.06,NE,42,1.0,0.0,75,0.00,,,0.00,meteohub,2013-02-03 22:33:00,
2013-02-03 16:38:00,13.5,6.8,30.06,NE,42,0.0,2.0,74,0.00,,,0.00,meteohub,2013-02-03 22:38:00,
2013-02-03 16:43:00,13.5,7.0,30.06,NE,42,0.0,2.0,75,0.00,,,0.00,meteohub,2013-02-03 22:43:00,
2013-02-03 16:48:00,13.6,7.2,30.06,NE,42,0.0,2.0,75,0.00,,,0.00,meteohub,2013-02-03 22:48:00,
2013-02-03 16:53:00,13.5,7.0,30.06,NE,41,0.0,0.0,75,0.00,,,0.00,meteohub,2013-02-03 22:53:00,
2013-02-03 16:58:00,13.5,7.0,30.06,NE,41,0.0,0.0,75,0.00,,,0.00,meteohub,2013-02-03 22:58:00,
2013-02-03 17:03:00,13.5,7.3,30.06,NE,41,0.0,0.0,76,0.00,,,0.00,meteohub,2013-02-03 23:03:00,
2013-02-03 17:09:00,13.3,7.2,30.06,NE,41,0.0,0.0,76,0.00,,,0.00,meteohub,2013-02-03 23:09:00,
2013-02-03 17:14:00,13.1,7.3,30.06,NE,41,0.0,0.0,77,0.00,,,0.00,meteohub,2013-02-03 23:14:00,
2013-02-03 17:19:00,12.9,7.2,30.06,NE,41,0.0,0.0,77,0.00,,,0.00,meteohub,2013-02-03 23:19:00,
2013-02-03 17:24:00,12.9,7.2,30.06,NE,41,0.0,0.0,77,0.00,,,0.00,meteohub,2013-02-03 23:24:00,
2013-02-03 17:29:00,12.9,7.3,30.06,NE,41,0.0,0.0,78,0.00,,,0.00,meteohub,2013-02-03 23:29:00,
2013-02-03 17:34:00,12.7,7.5,30.06,NE,41,0.0,0.0,79,0.00,,,0.00,meteohub,2013-02-03 23:34:00,
2013-02-03 17:39:00,12.9,7.7,30.06,NE,41,0.0,0.0,79,0.00,,,0.00,meteohub,2013-02-03 23:39:00,
2013-02-03 17:44:00,12.7,7.7,30.06,NE,41,0.0,0.0,80,0.00,,,0.00,meteohub,2013-02-03 23:44:00,
2013-02-03 17:49:00,12.9,7.9,30.07,NE,41,0.0,0.0,80,0.00,,,0.00,meteohub,2013-02-03 23:49:00,
2013-02-03 17:54:00,12.7,7.7,30.07,NE,41,0.0,0.0,80,0.00,,,0.00,meteohub,2013-02-03 23:54:00,
2013-02-03 17:59:00,12.7,7.7,30.07,NE,41,0.0,0.0,80,0.00,,,0.00,meteohub,2013-02-03 23:59:00,
2013-02-03 18:05:00,12.7,7.7,30.07,NE,41,0.0,0.0,80,0.00,,,0.00,meteohub,2013-02-04 00:05:00,
2013-02-03 18:10:00,12.7,8.1,30.07,NE,41,0.0,0.0,81,0.00,,,0.00,meteohub,2013-02-04 00:10:00,
2013-02-03 18:15:00,12.7,8.1,30.07,NE,41,0.0,0.0,81,0.00,,,0.00,meteohub,2013-02-04 00:15:00,
2013-02-03 18:20:00,12.9,8.2,30.07,NE,41,0.0,0.0,81,0.00,,,0.00,meteohub,2013-02-04 00:20:00,
2013-02-03 18:25:00,12.9,8.2,30.07,NE,41,0.0,0.0,81,0.00,,,0.00,meteohub,2013-02-04 00:25:00,
2013-02-03 18:30:00,12.7,8.1,30.07,NE,41,0.0,0.0,81,0.00,,,0.00,meteohub,2013-02-04 00:30:00,
2013-02-03 18:35:00,12.9,8.2,30.08,NE,41,0.0,0.0,81,0.00,,,0.00,meteohub,2013-02-04 00:35:00,
2013-02-03 18:40:00,12.7,8.1,30.07,NE,41,0.0,0.0,81,0.00,,,0.00,meteohub,2013-02-04 00:40:00,
2013-02-03 18:45:00,12.7,8.1,30.07,NE,41,0.0,0.0,81,0.00,,,0.00,meteohub,2013-02-04 00:45:00,
2013-02-03 18:50:00,12.7,8.2,30.06,NE,41,0.0,0.0,82,0.00,,,0.00,meteohub,2013-02-04 00:50:00,
2013-02-03 18:55:00,12.7,8.2,30.07,NE,41,0.0,0.0,82,0.00,,,0.00,meteohub,2013-02-04 00:55:00,
2013-02-03 19:00:00,12.7,8.2,30.06,NE,41,0.0,0.0,82,0.00,,,0.00,meteohub,2013-02-04 01:00:00,
2013-02-03 19:06:00,12.7,8.2,30.06,NE,41,0.0,0.0,82,0.00,,,0.00,meteohub,2013-02-04 01:06:00,
2013-02-03 19:11:00,12.6,8.1,30.06,NE,41,0.0,0.0,82,0.00,,,0.00,meteohub,2013-02-04 01:11:00,
2013-02-03 19:16:00,12.6,8.1,30.06,NE,41,0.0,0.0,82,0.00,,,0.00,meteohub,2013-02-04 01:16:00,
2013-02-03 19:21:00,12.6,8.1,30.06,NE,41,0.0,0.0,82,0.00,,,0.00,meteohub,2013-02-04 01:21:00,
2013-02-03 19:26:00,12.6,8.1,30.06,NE,41,0.0,0.0,82,0.00,,,0.00,meteohub,2013-02-04 01:26:00,
2013-02-03 19:31:00,12.6,8.1,30.05,NE,41,0.0,0.0,82,0.00,,,0.00,meteohub,2013-02-04 01:31:00,
2013-02-03 19:36:00,12.6,8.4,30.05,NE,41,0.0,0.0,83,0.00,,,0.00,meteohub,2013-02-04 01:36:00,
2013-02-03 19:41:00,12.6,8.4,30.04,NE,41,0.0,0.0,83,0.00,,,0.00,meteohub,2013-02-04 01:41:00,
2013-02-03 19:46:00,12.6,8.4,30.05,NE,41,0.0,0.0,83,0.00,,,0.00,meteohub,2013-02-04 01:46:00,
2013-02-03 19:51:00,12.6,8.4,30.05,NE,41,0.0,0.0,83,0.00,,,0.00,meteohub,2013-02-04 01:51:00,
2013-02-03 19:56:00,12.6,8.4,30.05,NE,41,0.0,0.0,83,0.00,,,0.00,meteohub,2013-02-04 01:56:00,
2013-02-03 20:01:00,12.7,8.6,30.05,NE,41,0.0,0.0,83,0.00,,,0.00,meteohub,2013-02-04 02:01:00,
2013-02-03 20:06:00,12.7,8.6,30.05,NE,41,0.0,0.0,83,0.00,,,0.00,meteohub,2013-02-04 02:06:00,
2013-02-03 20:11:00,12.7,8.6,30.05,NE,41,0.0,0.0,83,0.00,,,0.00,meteohub,2013-02-04 02:11:00,
2013-02-03 20:17:00,12.7,8.6,30.05,NE,41,0.0,0.0,83,0.00,,,0.00,meteohub,2013-02-04 02:17:00,
2013-02-03 20:22:00,12.7,8.6,30.05,NE,41,0.0,0.0,83,0.00,,,0.00,meteohub,2013-02-04 02:22:00,
2013-02-03 20:27:00,12.7,8.6,30.05,NE,41,0.0,0.0,83,0.00,,,0.00,meteohub,2013-02-04 02:27:00,
2013-02-03 20:32:00,12.9,8.8,30.05,NE,41,0.0,0.0,83,0.00,,,0.00,meteohub,2013-02-04 02:32:00,
2013-02-03 20:37:00,12.9,8.8,30.05,NE,41,0.0,0.0,83,0.00,,,0.00,meteohub,2013-02-04 02:37:00,
2013-02-03 20:42:00,12.9,8.8,30.05,NE,41,0.0,0.0,83,0.00,,,0.00,meteohub,2013-02-04 02:42:00,
2013-02-03 20:47:00,12.9,8.8,30.05,NE,41,0.0,0.0,83,0.00,,,0.00,meteohub,2013-02-04 02:47:00,
2013-02-03 20:52:00,12.9,8.8,30.05,NE,41,0.0,0.0,83,0.00,,,0.00,meteohub,2013-02-04 02:52:00,
2013-02-03 20:57:00,12.9,8.8,30.05,NE,41,0.0,0.0,83,0.00,,,0.00,meteohub,2013-02-04 02:57:00,
2013-02-03 21:02:00,12.9,8.8,30.05,NE,41,0.0,0.0,83,0.00,,,0.00,meteohub,2013-02-04 03:02:00,
2013-02-03 21:07:00,12.9,8.8,30.04,NE,41,0.0,0.0,83,0.00,,,0.00,meteohub,2013-02-04 03:07:00,
2013-02-03 21:12:00,12.9,8.8,30.05,NE,41,0.0,0.0,83,0.00,,,0.00,meteohub,2013-02-04 03:12:00,
2013-02-03 21:17:00,12.9,8.8,30.05,NE,41,0.0,0.0,83,0.00,,,0.00,meteohub,2013-02-04 03:17:00,
2013-02-03 21:22:00,12.9,8.8,30.05,NE,41,0.0,0.0,83,0.00,,,0.00,meteohub,2013-02-04 03:22:00,
2013-02-03 21:27:00,12.9,8.8,30.05,NE,41,0.0,0.0,83,0.00,,,0.00,meteohub,2013-02-04 03:27:00,
2013-02-03 21:32:00,12.9,8.8,30.05,NE,41,0.0,0.0,83,0.00,,,0.00,meteohub,2013-02-04 03:32:00,
2013-02-03 21:37:00,12.9,8.8,30.05,NE,41,0.0,0.0,83,0.00,,,0.00,meteohub,2013-02-04 03:37:00,
2013-02-03 21:42:00,12.9,8.8,30.05,NE,41,0.0,0.0,83,0.00,,,0.00,meteohub,2013-02-04 03:42:00,
2013-02-03 21:47:00,12.9,8.8,30.05,NE,41,0.0,0.0,83,0.00,,,0.00,meteohub,2013-02-04 03:47:00,
2013-02-03 21:52:00,12.9,8.8,30.04,NE,42,0.0,0.0,83,0.00,,,0.00,meteohub,2013-02-04 03:52:00,
2013-02-03 21:57:00,12.9,9.0,30.05,NE,42,0.0,0.0,84,0.00,,,0.00,meteohub,2013-02-04 03:57:00,
2013-02-03 22:03:00,12.9,9.0,30.05,NE,41,0.0,0.0,84,0.00,,,0.00,meteohub,2013-02-04 04:03:00,
2013-02-03 22:08:00,12.9,9.0,30.05,NE,42,0.0,0.0,84,0.00,,,0.00,meteohub,2013-02-04 04:08:00,
2013-02-03 22:13:00,12.9,9.0,30.05,NE,44,0.0,0.0,84,0.00,,,0.00,meteohub,2013-02-04 04:13:00,
2013-02-03 22:18:00,12.9,11.1,30.04,NE,44,0.0,0.0,92,0.00,,,0.00,meteohub,2013-02-04 04:18:00,
2013-02-03 22:23:00,12.9,9.0,30.04,NE,44,0.0,0.0,84,0.00,,,0.00,meteohub,2013-02-04 04:23:00,
2013-02-03 22:28:00,12.9,9.0,30.04,NE,44,0.0,0.0,84,0.00,,,0.00,meteohub,2013-02-04 04:28:00,
2013-02-03 22:33:00,12.9,9.0,30.04,NE,42,0.0,0.0,84,0.00,,,0.00,meteohub,2013-02-04 04:33:00,
2013-02-03 22:38:00,12.9,9.0,30.04,NE,44,0.0,0.0,84,0.00,,,0.00,meteohub,2013-02-04 04:38:00,
2013-02-03 22:43:00,12.9,9.0,30.04,NE,43,0.0,0.0,84,0.00,,,0.00,meteohub,2013-02-04 04:43:00,
2013-02-03 22:48:00,12.9,9.0,30.04,NE,45,0.0,0.0,84,0.00,,,0.00,meteohub,2013-02-04 04:48:00,
2013-02-03 22:53:00,12.9,9.0,30.04,NE,46,0.0,0.0,84,0.00,,,0.00,meteohub,2013-02-04 04:53:00,
2013-02-03 22:58:00,12.9,9.0,30.04,NE,46,0.0,0.0,84,0.00,,,0.00,meteohub,2013-02-04 04:58:00,
2013-02-03 23:00:00,12.9,9.0,30.04,NE,46,0.0,0.0,84,0.00,,,0.00,meteohub,2013-02-04 05:00:00,
2013-02-03 23:01:00,12.9,9.0,30.04,NE,46,0.0,0.0,84,0.00,,,0.00,meteohub,2013-02-04 05:01:00,
2013-02-03 23:02:00,12.9,9.0,30.04,NE,45,0.0,0.0,84,0.00,,,0.00,meteohub,2013-02-04 05:02:00,
2013-02-03 23:03:00,12.9,9.0,30.04,NE,45,0.0,0.0,84,0.00,,,0.00,meteohub,2013-02-04 05:03:00,
2013-02-03 23:08:00,12.9,9.0,30.04,NE,45,0.0,0.0,84,0.00,,,0.00,meteohub,2013-02-04 05:08:00,
2013-02-03 23:13:00,12.9,9.0,30.04,NE,46,0.0,0.0,84,0.00,,,0.00,meteohub,2013-02-04 05:13:00,
2013-02-03 23:18:00,12.9,9.0,30.04,South,186,0.0,0.0,84,0.00,,,0.00,meteohub,2013-02-04 05:18:00,
2013-02-03 23:23:00,12.9,9.0,30.04,South,186,0.0,0.0,84,0.00,,,0.00,meteohub,2013-02-04 05:23:00,
2013-02-03 23:28:00,12.7,8.8,30.04,South,185,0.0,3.0,84,0.00,,,0.00,meteohub,2013-02-04 05:28:00,
2013-02-03 23:33:00,12.7,8.8,30.04,South,186,0.0,3.0,84,0.00,,,0.00,meteohub,2013-02-04 05:33:00,
2013-02-03 23:38:00,12.7,8.8,30.04,South,186,0.0,3.0,84,0.00,,,0.00,meteohub,2013-02-04 05:38:00,
2013-02-03 23:43:00,12.7,8.8,30.04,South,186,0.0,3.0,84,0.00,,,0.00,meteohub,2013-02-04 05:43:00,
2013-02-03 23:49:00,12.7,8.8,30.04,South,186,0.0,3.0,84,0.00,,,0.00,meteohub,2013-02-04 05:49:00,
2013-02-03 23:54:00,12.7,8.8,30.04,South,186,0.0,0.0,84,0.00,,,0.00,meteohub,2013-02-04 05:54:00,
2013-02-03 23:59:00,12.7,8.8,30.04,South,186,0.0,0.0,84,0.00,,,0.00,meteohub,2013-02-04 05:59:00,